Time;durP1;ratioP1;P1;durP2;ratioP2;P2;SDS_P1;SDS_P2;PMS_P1;PMS_P2;Temp;Humidity;BMP_temperature;BMP_pressure;BME280_temperature;BME280_humidity;BME280_pressure;Samples;Min_cycle;Max_cycle;Signal;HPM_P1;HPM_P2
2021/08/23 00:02:16;;;;;;;6.97;3.67;;;;;;;13.69;100.00;101717.84;5068462;28;20040;-71
2021/08/23 00:04:41;;;;;;;4.10;2.30;;;;;;;13.73;100.00;101716.53;5069098;28;20055;-71
2021/08/23 00:07:07;;;;;;;5.40;2.97;;;;;;;13.67;100.00;101717.16;5068669;28;20032;-72
2021/08/23 00:09:32;;;;;;;9.33;3.00;;;;;;;13.64;100.00;101717.47;5051379;28;20261;-72
2021/08/23 00:11:59;;;;;;;9.20;3.55;;;;;;;13.62;100.00;101716.78;5069338;28;20059;-72
2021/08/23 00:14:25;;;;;;;5.57;3.00;;;;;;;13.58;100.00;101720.78;5069062;28;20559;-72
2021/08/23 00:16:50;;;;;;;4.50;2.47;;;;;;;13.52;100.00;101720.44;5069141;28;20051;-72
2021/08/23 00:19:16;;;;;;;9.63;2.73;;;;;;;13.50;100.00;101727.78;5068286;28;20363;-72
2021/08/23 00:21:44;;;;;;;4.47;3.03;;;;;;;13.54;100.00;101716.75;5068028;28;20199;-71
2021/08/23 00:24:45;;;;;;;10.57;3.15;;;;;;;13.49;100.00;101725.28;5068844;28;20056;-71
2021/08/23 00:27:03;;;;;;;9.27;3.97;;;;;;;13.44;100.00;101725.75;5068491;28;20056;-71
2021/08/23 00:29:29;;;;;;;10.73;3.77;;;;;;;13.39;100.00;101720.03;5067978;28;20040;-71
2021/08/23 00:31:54;;;;;;;5.63;3.00;;;;;;;13.42;100.00;101719.69;5067739;28;20115;-71
2021/08/23 00:34:19;;;;;;;7.50;3.30;;;;;;;13.37;100.00;101721.16;5068553;28;20344;-71
2021/08/23 00:36:45;;;;;;;6.90;3.43;;;;;;;13.33;100.00;101730.53;5068478;28;20071;-71
2021/08/23 00:39:13;;;;;;;8.43;4.18;;;;;;;13.33;100.00;101726.00;5068949;28;20025;-71
2021/08/23 00:41:40;;;;;;;8.75;3.25;;;;;;;13.35;100.00;101724.00;5068487;28;20040;-71
2021/08/23 00:44:07;;;;;;;7.93;3.75;;;;;;;13.35;100.00;101732.06;5067591;28;20032;-71
2021/08/23 00:46:33;;;;;;;6.03;3.90;;;;;;;13.30;100.00;101732.53;5068243;28;20431;-71
2021/08/23 00:49:02;;;;;;;;;;;;;;;13.27;100.00;101731.94;5068902;28;20169;-71
2021/08/23 00:51:28;;;;;;;12.68;4.22;;;;;;;13.25;100.00;101729.44;5068079;28;19908;-71
2021/08/23 00:53:54;;;;;;;7.10;3.60;;;;;;;13.19;100.00;101724.69;5067537;28;20113;-71
2021/08/23 00:56:21;;;;;;;8.52;3.40;;;;;;;13.15;100.00;101738.56;5068027;28;20105;-71
2021/08/23 00:58:47;;;;;;;6.75;3.97;;;;;;;13.15;100.00;101738.56;5068533;28;20051;-71
2021/08/23 01:01:24;;;;;;;6.78;4.15;;;;;;;13.13;100.00;101733.34;5067210;28;20024;-71
2021/08/23 01:04:04;;;;;;;9.63;4.45;;;;;;;13.11;100.00;101732.69;5068341;28;20107;-71
2021/08/23 01:06:31;;;;;;;12.10;4.25;;;;;;;13.08;100.00;101744.53;5068018;28;20056;-71
2021/08/23 01:09:08;;;;;;;;;;;;;;;13.05;100.00;101742.16;5068815;28;20029;-71
2021/08/23 01:11:41;;;;;;;7.80;3.60;;;;;;;12.96;100.00;101737.72;5067966;28;19931;-71
2021/08/23 01:14:06;;;;;;;8.98;4.05;;;;;;;12.96;100.00;101742.25;5067257;28;20109;-71
2021/08/23 01:16:31;;;;;;;16.37;4.33;;;;;;;12.88;100.00;101743.03;5050483;28;20064;-71
2021/08/23 01:18:57;;;;;;;8.80;3.90;;;;;;;12.92;100.00;101747.06;5067189;28;20078;-71
2021/08/23 01:21:26;;;;;;;9.77;4.20;;;;;;;12.86;100.00;101753.06;5050522;28;20044;-71
2021/08/23 01:23:53;;;;;;;10.63;4.20;;;;;;;12.79;100.00;101754.66;5066909;28;20040;-71
2021/08/23 01:26:24;;;;;;;11.30;3.95;;;;;;;12.83;100.00;101761.38;5067815;28;20037;-71
2021/08/23 01:29:01;;;;;;;9.35;3.58;;;;;;;12.82;100.00;101757.88;5067897;28;20033;-71
2021/08/23 01:31:52;;;;;;;10.07;3.97;;;;;;;12.82;100.00;101765.06;5050328;28;20071;-71
2021/08/23 01:34:19;;;;;;;6.32;3.15;;;;;;;12.79;100.00;101757.34;5067687;28;20120;-71
2021/08/23 01:36:44;;;;;;;7.68;3.75;;;;;;;12.77;100.00;101762.00;5066916;28;20044;-71
2021/08/23 01:39:09;;;;;;;6.03;3.40;;;;;;;12.77;100.00;101757.50;5050206;28;20021;-71
2021/08/23 01:41:35;;;;;;;6.40;3.13;;;;;;;12.78;100.00;101764.56;5067044;28;20520;-71
2021/08/23 01:44:00;;;;;;;8.67;3.53;;;;;;;12.77;100.00;101765.53;5066603;28;20032;-71
2021/08/23 01:46:32;;;;;;;13.13;3.70;;;;;;;12.76;100.00;101760.31;5049617;28;20111;-71
2021/08/23 01:48:58;;;;;;;10.60;3.20;;;;;;;12.73;100.00;101757.94;5067628;28;20039;-71
2021/08/23 01:51:25;;;;;;;6.47;3.25;;;;;;;12.73;100.00;101758.78;5068007;28;20021;-71
2021/08/23 01:53:50;;;;;;;;;;;;;;;12.71;100.00;101762.59;5068127;28;20060;-71
2021/08/23 01:56:15;;;;;;;9.75;2.85;;;;;;;12.66;100.00;101749.66;5067463;28;19966;-71
2021/08/23 01:58:40;;;;;;;6.03;3.47;;;;;;;12.65;100.00;101751.50;5067844;28;20094;-71
2021/08/23 02:01:06;;;;;;;8.40;3.17;;;;;;;12.62;100.00;101749.16;5066975;28;20105;-71
2021/08/23 02:03:31;;;;;;;11.17;2.90;;;;;;;12.64;100.00;101755.19;5067722;28;20029;-71
2021/08/23 02:05:56;;;;;;;9.73;3.33;;;;;;;12.64;100.00;101749.84;5067198;28;20458;-71
2021/08/23 02:08:22;;;;;;;6.33;3.53;;;;;;;12.64;100.00;101748.97;5066916;28;20055;-71
2021/08/23 02:10:47;;;;;;;7.80;3.40;;;;;;;12.64;100.00;101752.53;5049841;28;20140;-71
2021/08/23 02:13:12;;;;;;;7.77;3.37;;;;;;;12.58;100.00;101755.78;5067617;28;20028;-71
2021/08/23 02:15:38;;;;;;;8.17;3.13;;;;;;;12.58;100.00;101761.16;5067263;28;20335;-71
2021/08/23 02:18:03;;;;;;;6.97;3.07;;;;;;;12.57;100.00;101764.84;5067444;28;20059;-71
2021/08/23 02:20:29;;;;;;;8.87;3.50;;;;;;;12.58;100.00;101763.81;5067520;28;20033;-71
2021/08/23 02:22:54;;;;;;;5.30;2.77;;;;;;;12.53;100.00;101770.66;5066427;28;20040;-70
2021/08/23 02:25:23;;;;;;;6.00;2.87;;;;;;;12.50;100.00;101766.41;5066390;28;20024;-71
2021/08/23 02:27:52;;;;;;;7.65;3.95;;;;;;;12.49;100.00;101769.25;5067191;28;20040;-71
2021/08/23 02:30:19;;;;;;;7.03;3.28;;;;;;;12.48;100.00;101771.09;5066660;28;20434;-71
2021/08/23 02:32:45;;;;;;;8.10;3.00;;;;;;;12.39;100.00;101766.63;5071079;28;20028;-71
2021/08/23 02:35:10;;;;;;;8.63;3.35;;;;;;;12.42;100.00;101775.19;5070899;28;20051;-71
2021/08/23 02:37:36;;;;;;;7.60;3.20;;;;;;;12.43;100.00;101776.03;5071000;28;20465;-71
2021/08/23 02:40:01;;;;;;;12.57;3.63;;;;;;;12.40;100.00;101781.69;5071276;28;20126;-71
2021/08/23 02:42:26;;;;;;;7.93;3.07;;;;;;;12.41;100.00;101778.03;5070926;28;20044;-71
2021/08/23 02:44:52;;;;;;;4.30;2.73;;;;;;;12.43;100.00;101781.38;5070067;28;20135;-71
2021/08/23 02:47:17;;;;;;;9.33;3.70;;;;;;;12.38;100.00;101773.78;5070397;28;20066;-70
2021/08/23 02:49:42;;;;;;;8.07;3.07;;;;;;;12.40;100.00;101787.06;5070139;28;20068;-71
2021/08/23 02:52:08;;;;;;;5.57;2.80;;;;;;;12.35;100.00;101784.81;5070758;28;20068;-70
2021/08/23 02:54:33;;;;;;;6.70;4.00;;;;;;;12.29;100.00;101790.78;5070783;28;20032;-71
2021/08/23 02:56:59;;;;;;;3.47;2.43;;;;;;;12.26;100.00;101791.06;5070420;28;20040;-70
2021/08/23 02:59:24;;;;;;;5.82;3.05;;;;;;;12.24;100.00;101796.59;5069915;28;20105;-71
2021/08/23 03:01:50;;;;;;;6.57;2.60;;;;;;;12.27;100.00;101807.97;5052843;28;20164;-71
2021/08/23 03:04:15;;;;;;;9.43;3.13;;;;;;;12.32;100.00;101800.34;5070616;28;20090;-70
2021/08/23 03:06:40;;;;;;;5.60;2.67;;;;;;;12.33;100.00;101807.38;5052539;28;20040;-71
2021/08/23 03:09:06;;;;;;;6.47;2.27;;;;;;;12.39;100.00;101804.97;5070437;28;20041;-71
2021/08/23 03:11:31;;;;;;;5.97;2.50;;;;;;;12.39;100.00;101804.97;5070341;28;20059;-71
2021/08/23 03:13:57;;;;;;;5.47;1.87;;;;;;;12.29;100.00;101806.84;5070595;28;20046;-71
2021/08/23 03:16:23;;;;;;;6.00;2.30;;;;;;;12.27;100.00;101814.19;5069308;28;20033;-71
2021/08/23 03:18:48;;;;;;;4.87;2.20;;;;;;;12.28;100.00;101812.34;5070264;28;20071;-70
2021/08/23 03:21:13;;;;;;;3.80;2.40;;;;;;;12.28;100.00;101809.66;5070465;28;20089;-71
2021/08/23 03:23:38;;;;;;;4.67;2.43;;;;;;;12.27;100.00;101814.19;5069007;28;20505;-71
2021/08/23 03:26:05;;;;;;;7.20;3.10;;;;;;;12.33;100.00;101818.09;5068956;28;20457;-71
2021/08/23 03:28:31;;;;;;;11.02;2.47;;;;;;;12.32;100.00;101809.22;5070210;28;20067;-70
2021/08/23 03:30:57;;;;;;;7.32;3.13;;;;;;;12.31;100.00;101806.69;5069281;28;20063;-71
2021/08/23 03:33:22;;;;;;;6.07;2.37;;;;;;;12.35;100.00;101811.59;5052263;28;20052;-71
2021/08/23 03:35:48;;;;;;;5.20;2.93;;;;;;;12.33;100.00;101818.09;5069867;28;20198;-70
2021/08/23 03:38:13;;;;;;;5.63;2.30;;;;;;;12.31;100.00;101818.22;5069712;28;20818;-71
2021/08/23 03:40:39;;;;;;;7.63;2.80;;;;;;;12.26;100.00;101823.19;5070303;28;20024;-71
2021/08/23 03:43:05;;;;;;;7.88;2.53;;;;;;;12.28;100.00;101821.22;5068734;28;20047;-71
2021/08/23 03:45:30;;;;;;;7.57;2.60;;;;;;;12.35;100.00;101824.16;5069684;28;20044;-71
2021/08/23 03:47:56;;;;;;;5.50;2.05;;;;;;;12.31;100.00;101820.91;5069071;28;20047;-71
2021/08/23 03:50:21;;;;;;;5.10;2.43;;;;;;;12.36;100.00;101833.84;5069668;28;20051;-71
2021/08/23 03:52:47;;;;;;;8.10;2.47;;;;;;;12.35;100.00;101837.53;5052052;28;20055;-71
2021/08/23 03:55:13;;;;;;;9.82;2.53;;;;;;;12.33;100.00;101839.50;5069426;28;20335;-71
2021/08/23 03:57:38;;;;;;;8.03;3.03;;;;;;;12.33;100.00;101837.69;5068412;28;20063;-71
2021/08/23 04:00:08;;;;;;;6.55;3.15;;;;;;;12.34;100.00;101835.84;5069514;28;20335;-71
2021/08/23 04:02:33;;;;;;;5.15;2.67;;;;;;;12.34;100.00;101842.06;5069502;28;20051;-71
2021/08/23 04:04:59;;;;;;;7.10;3.33;;;;;;;12.41;100.00;101842.31;5069019;28;20453;-70
2021/08/23 04:07:24;;;;;;;5.20;2.77;;;;;;;12.37;100.00;101843.59;5051816;28;20046;-71
2021/08/23 04:09:50;;;;;;;2.97;2.37;;;;;;;12.43;100.00;101851.03;5068320;28;20048;-70
2021/08/23 04:12:15;;;;;;;8.23;3.10;;;;;;;12.40;100.00;101851.31;5051890;28;20289;-71
2021/08/23 04:14:41;;;;;;;8.30;3.80;;;;;;;12.39;100.00;101855.00;5068197;28;20101;-71
2021/08/23 04:17:06;;;;;;;7.40;3.85;;;;;;;12.40;100.00;101857.50;5069043;28;20032;-70
2021/08/23 04:19:32;;;;;;;9.33;3.73;;;;;;;12.45;100.00;101870.47;5068953;28;20076;-71
2021/08/23 04:21:58;;;;;;;8.20;3.13;;;;;;;12.44;100.00;101869.63;5069268;28;20020;-71
2021/08/23 04:24:24;;;;;;;5.22;2.42;;;;;;;12.43;100.00;101872.44;5068852;28;20381;-71
2021/08/23 04:26:49;;;;;;;6.55;3.03;;;;;;;12.46;100.00;101872.19;5068994;28;20024;-71
2021/08/23 04:29:15;;;;;;;10.70;3.87;;;;;;;12.44;100.00;101872.31;5068194;28;20044;-71
2021/08/23 04:31:42;;;;;;;5.13;2.92;;;;;;;12.44;100.00;101874.16;5068913;28;20036;-71
2021/08/23 04:34:07;;;;;;;8.05;2.90;;;;;;;12.45;100.00;101876.69;5068764;28;20052;-71
2021/08/23 04:36:33;;;;;;;6.80;2.43;;;;;;;12.51;100.00;101891.31;5067635;28;20071;-71
2021/08/23 04:38:58;;;;;;;6.57;2.33;;;;;;;12.55;100.00;101891.84;5069108;28;20031;-70
2021/08/23 04:41:23;;;;;;;6.63;2.73;;;;;;;12.55;100.00;101886.50;5068907;28;20024;-70
2021/08/23 04:43:49;;;;;;;3.40;2.00;;;;;;;12.63;100.00;101895.50;5067815;28;20470;-71
2021/08/23 04:46:14;;;;;;;9.33;2.60;;;;;;;12.62;100.00;101895.66;5066865;28;20365;-71
2021/08/23 04:48:39;;;;;;;5.03;2.20;;;;;;;12.63;100.00;101900.84;5067988;28;20093;-71
2021/08/23 04:51:06;;;;;;;5.83;1.93;;;;;;;12.61;100.00;101894.78;5068628;28;20545;-70
2021/08/23 04:53:32;;;;;;;9.80;2.30;;;;;;;12.74;100.00;101905.19;5067647;28;20036;-70
2021/08/23 04:55:57;;;;;;;6.27;2.00;;;;;;;12.76;100.00;101905.00;5067279;28;20480;-71
2021/08/23 04:58:23;;;;;;;5.93;2.00;;;;;;;12.79;100.00;101915.47;5067709;28;20036;-71
2021/08/23 05:00:48;;;;;;;5.50;2.50;;;;;;;12.77;100.00;101912.06;5068485;28;20492;-71
2021/08/23 05:03:14;;;;;;;8.10;2.60;;;;;;;12.89;100.00;101918.91;5067788;28;20031;-71
2021/08/23 05:05:40;;;;;;;4.32;2.55;;;;;;;12.93;100.00;101925.69;5068616;28;20032;-71
2021/08/23 05:08:06;;;;;;;7.03;1.88;;;;;;;12.93;100.00;101928.34;5068408;28;20494;-71
2021/08/23 05:10:31;;;;;;;5.33;2.10;;;;;;;12.93;100.00;101928.34;5068572;28;20074;-71
2021/08/23 05:12:57;;;;;;;4.90;2.40;;;;;;;13.04;100.00;101919.25;5067195;28;20032;-71
2021/08/23 05:15:23;;;;;;;5.47;2.30;;;;;;;13.06;100.00;101934.22;5067315;28;20055;-71
2021/08/23 05:17:48;;;;;;;;;;;;;;;13.15;100.00;101928.94;5068642;28;20127;-72
2021/08/23 05:20:14;;;;;;;;;;;;;;;13.20;100.00;101927.47;5068984;28;20401;-71
2021/08/23 05:22:39;;;;;;;6.10;2.07;;;;;;;13.25;100.00;101927.91;5068245;28;19912;-71
2021/08/23 05:25:07;;;;;;;4.88;1.92;;;;;;;13.27;100.00;101936.66;5067426;28;20505;-71
2021/08/23 05:27:32;;;;;;;2.38;1.83;;;;;;;13.33;100.00;101927.16;5067931;28;20047;-71
2021/08/23 05:30:02;;;;;;;3.33;2.20;;;;;;;13.97;100.00;101932.44;5068311;28;20024;-71
2021/08/23 05:32:28;;;;;;;2.47;1.25;;;;;;;15.16;94.83;101930.72;5068028;28;20377;-71
2021/08/23 05:34:53;;;;;;;4.20;1.45;;;;;;;16.01;88.38;101929.69;5067348;28;20037;-71
2021/08/23 05:37:20;;;;;;;3.13;1.43;;;;;;;16.52;83.36;101938.34;5066907;28;20501;-72
2021/08/23 05:39:46;;;;;;;3.75;1.52;;;;;;;17.16;81.90;101945.53;5068458;28;20036;-71
2021/08/23 05:42:11;;;;;;;2.42;1.40;;;;;;;16.44;81.94;101943.78;5067368;28;20527;-71
2021/08/23 05:44:37;;;;;;;4.13;1.60;;;;;;;15.95;84.89;101941.97;5066866;28;20037;-71
2021/08/23 05:47:02;;;;;;;2.97;1.27;;;;;;;16.13;84.25;101947.19;5067505;28;20282;-71
2021/08/23 05:49:28;;;;;;;1.80;1.20;;;;;;;16.93;81.16;101945.47;5068199;28;20065;-71
2021/08/23 05:51:53;;;;;;;2.73;1.50;;;;;;;17.90;78.23;101957.56;5049959;28;20288;-71
2021/08/23 05:54:19;;;;;;;3.20;1.33;;;;;;;18.38;74.42;101957.31;5066865;28;20074;-71
2021/08/23 05:56:44;;;;;;;3.03;1.53;;;;;;;18.79;73.30;101954.16;5067945;28;20116;-71
2021/08/23 05:59:09;;;;;;;4.43;1.60;;;;;;;19.22;71.20;101959.69;5067971;28;20043;-72
2021/08/23 06:01:35;;;;;;;2.53;1.30;;;;;;;19.27;58.12;101965.41;5067305;28;20028;-71
2021/08/23 06:04:00;;;;;;;2.93;1.23;;;;;;;18.85;70.70;101966.13;5066890;28;20405;-71
2021/08/23 06:06:25;;;;;;;1.93;1.10;;;;;;;19.22;70.79;101959.69;5070198;28;20064;-72
2021/08/23 06:08:51;;;;;;;1.60;0.97;;;;;;;19.39;70.53;101968.44;5071827;28;20114;-72
2021/08/23 06:11:16;;;;;;;2.80;1.27;;;;;;;19.71;69.80;101964.41;5072040;28;20508;-72
2021/08/23 06:13:41;;;;;;;4.30;1.27;;;;;;;19.94;68.78;101957.97;5070767;28;20373;-72
2021/08/23 06:16:07;;;;;;;3.07;1.13;;;;;;;19.89;64.79;101955.00;5071343;28;20032;-72
2021/08/23 06:18:32;;;;;;;2.77;1.33;;;;;;;19.81;67.16;101956.81;5071943;28;20159;-72
2021/08/23 06:21:00;;;;;;;1.97;1.10;;;;;;;19.80;62.78;101974.09;5071515;28;20169;-72
2021/08/23 06:23:25;;;;;;;2.15;0.90;;;;;;;20.23;62.24;101968.66;5070664;28;20017;-72
2021/08/23 06:25:51;;;;;;;5.17;1.63;;;;;;;19.75;63.80;101971.13;5070095;28;20067;-72
2021/08/23 06:28:19;;;;;;;1.57;1.00;;;;;;;19.96;64.77;101969.44;5071461;28;20293;-72
2021/08/23 06:30:44;;;;;;;2.85;1.00;;;;;;;20.18;62.76;101968.41;5070351;28;20024;-72
2021/08/23 06:33:10;;;;;;;2.23;1.10;;;;;;;20.31;63.49;101980.38;5071374;28;20101;-72
2021/08/23 06:35:35;;;;;;;2.30;1.30;;;;;;;19.97;63.98;101982.81;5070076;28;20178;-72
2021/08/23 06:38:01;;;;;;;1.63;1.00;;;;;;;19.79;64.77;101983.28;5071149;28;20033;-72
2021/08/23 06:40:26;;;;;;;2.97;1.57;;;;;;;19.92;64.99;101979.84;5071057;28;20450;-72
2021/08/23 06:42:51;;;;;;;4.03;1.53;;;;;;;19.82;64.55;101988.28;5053485;28;20131;-72
2021/08/23 06:45:17;;;;;;;3.17;1.40;;;;;;;19.48;65.32;101990.81;5070772;28;20043;-72
2021/08/23 06:47:42;;;;;;;2.88;1.20;;;;;;;19.97;65.09;101990.09;5069461;28;20028;-72
2021/08/23 06:50:08;;;;;;;3.77;1.57;;;;;;;20.42;64.59;102004.25;5070224;28;20153;-72
2021/08/23 06:52:33;;;;;;;2.22;1.20;;;;;;;20.69;64.02;101999.84;5069464;28;20047;-72
2021/08/23 06:54:59;;;;;;;3.17;1.00;;;;;;;21.34;61.59;102008.53;5070882;28;20029;-72
2021/08/23 06:57:24;;;;;;;2.73;1.20;;;;;;;21.16;64.99;102005.53;5069525;28;20032;-72
2021/08/23 06:59:50;;;;;;;3.10;1.10;;;;;;;20.49;65.34;102005.13;5070125;28;20041;-72
2021/08/23 07:02:15;;;;;;;3.17;1.70;;;;;;;20.12;66.16;102001.72;5070652;28;20127;-71
2021/08/23 07:04:41;;;;;;;1.63;1.40;;;;;;;20.38;66.87;102001.09;5069802;28;20045;-72
2021/08/23 07:07:06;;;;;;;2.42;1.25;;;;;;;20.86;66.22;102012.09;5069342;28;20041;-72
2021/08/23 07:09:32;;;;;;;3.33;1.20;;;;;;;20.55;66.40;102009.75;5070706;28;20025;-72
2021/08/23 07:11:57;;;;;;;5.03;1.43;;;;;;;20.39;66.16;102021.75;5069208;28;20450;-72
2021/08/23 07:14:22;;;;;;;2.20;1.07;;;;;;;20.73;66.70;102028.28;5070608;28;20048;-72
2021/08/23 07:16:48;;;;;;;2.60;1.20;;;;;;;20.29;66.12;102017.69;5070136;28;20036;-72
2021/08/23 07:19:13;;;;;;;2.80;1.10;;;;;;;19.90;68.49;102021.72;5070700;28;20137;-72
2021/08/23 07:21:39;;;;;;;3.45;0.90;;;;;;;20.45;66.71;102025.53;5070318;28;20074;-72
2021/08/23 07:24:06;;;;;;;3.63;1.10;;;;;;;20.44;66.83;102023.88;5069398;28;20052;-72
2021/08/23 07:26:31;;;;;;;2.80;1.15;;;;;;;20.58;65.96;102030.25;5070144;28;20072;-72
2021/08/23 07:28:57;;;;;;;3.87;1.70;;;;;;;20.68;65.80;102029.94;5070151;28;20141;-72
2021/08/23 07:31:22;;;;;;;1.87;1.00;;;;;;;20.30;66.28;102027.50;5069434;28;20045;-72
2021/08/23 07:33:48;;;;;;;4.03;1.47;;;;;;;20.34;66.88;102026.91;5070108;28;20040;-73
2021/08/23 07:36:13;;;;;;;3.08;1.50;;;;;;;20.21;64.37;102029.53;5069772;28;20032;-72
2021/08/23 07:38:39;;;;;;;2.70;0.97;;;;;;;20.36;66.44;102037.56;5069229;28;20031;-72
2021/08/23 07:41:04;;;;;;;2.53;1.10;;;;;;;20.64;66.58;102046.59;5069990;28;20024;-73
2021/08/23 07:43:31;;;;;;;2.27;0.97;;;;;;;20.71;65.12;102043.09;5069898;28;20482;-73
2021/08/23 07:45:56;;;;;;;1.45;0.90;;;;;;;20.82;64.55;102048.81;5069625;28;20028;-72
2021/08/23 07:48:21;;;;;;;2.47;1.13;;;;;;;20.86;64.40;102043.78;5068802;28;20028;-73
2021/08/23 07:50:47;;;;;;;2.83;1.20;;;;;;;20.91;65.20;102044.06;5051604;28;20417;-73
2021/08/23 07:53:12;;;;;;;8.87;2.17;;;;;;;21.06;63.75;102061.03;5069593;28;20032;-72
2021/08/23 07:55:38;;;;;;;3.15;1.20;;;;;;;20.77;64.60;102055.88;5069401;28;20039;-73
2021/08/23 07:58:03;;;;;;;1.20;0.97;;;;;;;21.05;63.75;102059.38;5069565;28;20037;-73
2021/08/23 08:00:29;;;;;;;2.17;1.02;;;;;;;20.82;62.79;102056.94;5069612;28;20027;-73
2021/08/23 08:02:54;;;;;;;2.97;1.77;;;;;;;21.58;61.20;102063.41;5069619;28;20036;-73
2021/08/23 08:05:19;;;;;;;2.30;1.40;;;;;;;20.91;62.30;102056.78;5069083;28;20101;-72
2021/08/23 08:07:45;;;;;;;1.37;0.93;;;;;;;21.49;60.87;102060.03;5068478;28;20043;-73
2021/08/23 08:10:12;;;;;;;3.40;1.53;;;;;;;21.74;60.11;102065.75;5068171;28;20041;-73
2021/08/23 08:12:37;;;;;;;2.97;1.25;;;;;;;21.87;58.95;102057.66;5069295;28;20704;-73
2021/08/23 08:15:04;;;;;;;1.48;1.15;;;;;;;21.39;58.60;102067.69;5051473;28;20102;-73
2021/08/23 08:17:29;;;;;;;;;;;;;;;21.19;58.31;102064.88;5068507;28;20102;-73
2021/08/23 08:19:54;;;;;;;2.08;0.93;;;;;;;21.53;60.68;102064.00;5068952;28;19920;-73
2021/08/23 08:22:20;;;;;;;4.97;1.77;;;;;;;22.36;58.24;102074.69;5068276;28;20033;-73
2021/08/23 08:24:46;;;;;;;2.15;1.30;;;;;;;22.46;57.15;102077.00;5068872;28;20040;-73
2021/08/23 08:27:12;;;;;;;3.42;1.67;;;;;;;22.63;56.14;102067.34;5067932;28;20127;-73
2021/08/23 08:29:38;;;;;;;4.22;1.33;;;;;;;22.72;56.13;102076.13;5050917;28;20096;-73
2021/08/23 08:32:07;;;;;;;4.55;1.33;;;;;;;22.94;53.29;102077.56;5068067;28;20094;-73
2021/08/23 08:34:34;;;;;;;2.88;1.25;;;;;;;23.11;53.93;102077.97;5067763;28;20036;-73
2021/08/23 08:36:59;;;;;;;2.65;1.40;;;;;;;23.01;52.24;102076.72;5050635;28;20028;-73
2021/08/23 08:39:25;;;;;;;4.00;1.30;;;;;;;23.21;53.49;102085.69;5068645;28;20032;-73
2021/08/23 08:41:50;;;;;;;2.63;1.87;;;;;;;22.70;50.72;102084.50;5066970;28;20367;-73
2021/08/23 08:44:15;;;;;;;2.93;1.10;;;;;;;23.16;50.99;102083.63;5068385;28;20052;-73
2021/08/23 08:46:42;;;;;;;1.08;0.90;;;;;;;23.57;54.37;102087.84;5049917;28;20032;-73
2021/08/23 08:49:11;;;;;;;3.17;1.13;;;;;;;24.06;48.98;102090.16;5067399;28;20059;-73
2021/08/23 08:51:37;;;;;;;1.70;1.17;;;;;;;23.90;50.10;102088.75;5067728;28;20032;-73
2021/08/23 08:54:04;;;;;;;3.63;1.45;;;;;;;24.47;48.94;102083.34;5067621;28;20037;-73
2021/08/23 08:56:31;;;;;;;1.15;1.05;;;;;;;24.20;48.76;102083.53;5068364;28;20111;-73
2021/08/23 08:58:56;;;;;;;2.58;1.23;;;;;;;24.87;48.85;102094.75;5067400;28;20097;-73
2021/08/23 09:01:22;;;;;;;1.40;0.85;;;;;;;24.46;46.41;102092.56;5068400;28;20045;-73
2021/08/23 09:03:48;;;;;;;2.20;1.40;;;;;;;24.36;48.28;102090.34;5067632;28;20032;-74
2021/08/23 09:06:13;;;;;;;1.73;1.27;;;;;;;24.80;46.88;102096.72;5068024;28;20032;-73
2021/08/23 09:08:43;;;;;;;1.57;1.00;;;;;;;23.45;46.69;102092.31;5067535;28;20596;-73
2021/08/23 09:11:10;;;;;;;2.47;0.98;;;;;;;22.52;47.44;102082.44;5068476;28;20291;-73
2021/08/23 09:13:36;;;;;;;2.83;1.40;;;;;;;22.55;50.86;102103.78;5067141;28;20089;-72
2021/08/23 09:16:01;;;;;;;1.00;0.90;;;;;;;23.46;48.79;102096.72;5068082;28;20434;-73
2021/08/23 09:18:28;;;;;;;3.33;1.23;;;;;;;23.45;47.50;102102.38;5067184;28;20043;-72
2021/08/23 09:20:58;;;;;;;3.13;0.90;;;;;;;23.12;47.09;102101.44;5068404;28;20524;-73
2021/08/23 09:23:32;;;;;;;3.25;1.10;;;;;;;22.63;49.04;102100.00;5067992;28;20055;-73
2021/08/23 09:26:06;;;;;;;1.02;0.90;;;;;;;23.12;48.74;102103.31;5068019;28;20036;-73
2021/08/23 09:28:31;;;;;;;2.00;0.88;;;;;;;22.64;47.41;102114.44;5068235;28;20184;-73
2021/08/23 09:31:00;;;;;;;1.73;0.90;;;;;;;23.21;49.14;102114.84;5066109;28;20055;-72
2021/08/23 09:33:25;;;;;;;3.65;1.55;;;;;;;24.11;47.22;102114.88;5065498;28;20035;-73
2021/08/23 09:35:52;;;;;;;2.60;1.35;;;;;;;24.47;45.31;102091.53;5066642;28;20351;-73
2021/08/23 09:38:18;;;;;;;1.42;1.00;;;;;;;25.24;44.33;102111.22;5065854;28;20123;-73
2021/08/23 09:40:44;;;;;;;1.77;1.20;;;;;;;24.23;43.02;102099.44;5050293;28;20032;-73
2021/08/23 09:43:16;;;;;;;;;;;;;;;25.14;44.11;102110.88;5053501;28;20039;-73
2021/08/23 09:46:02;;;;;;;1.98;1.10;;;;;;;23.29;44.21;102114.59;5071641;28;19912;-73
2021/08/23 09:48:28;;;;;;;1.65;1.00;;;;;;;22.93;46.78;102103.13;5072193;28;20462;-73
2021/08/23 09:50:53;;;;;;;1.63;1.27;;;;;;;24.70;46.00;102115.50;5071272;28;20039;-73
2021/08/23 09:53:20;;;;;;;1.80;1.13;;;;;;;25.25;44.88;102113.72;5070899;28;20382;-72
2021/08/23 09:55:50;;;;;;;2.25;1.08;;;;;;;25.45;40.48;102107.16;5070684;28;20051;-72
2021/08/23 09:58:16;;;;;;;2.53;1.05;;;;;;;25.61;44.63;102122.13;5071015;28;20036;-73
2021/08/23 10:00:43;;;;;;;1.20;1.00;;;;;;;26.07;35.85;102127.00;5072170;28;20042;-73
2021/08/23 10:03:14;;;;;;;2.15;0.95;;;;;;;26.16;41.60;102113.00;5054281;28;20040;-73
2021/08/23 10:05:45;;;;;;;1.27;1.00;;;;;;;25.90;41.39;102115.03;5071452;28;20419;-73
2021/08/23 10:08:20;;;;;;;1.58;1.00;;;;;;;26.61;40.46;102115.25;5071938;28;20626;-73
2021/08/23 10:10:46;;;;;;;1.70;1.20;;;;;;;26.73;42.17;102118.81;5070583;28;20040;-73
2021/08/23 10:13:11;;;;;;;3.50;1.17;;;;;;;25.27;41.22;102130.72;5070773;28;20029;-73
2021/08/23 10:15:38;;;;;;;1.38;0.75;;;;;;;24.54;34.13;102117.75;5071472;28;20032;-72
2021/08/23 10:18:04;;;;;;;1.27;1.00;;;;;;;23.53;34.77;102124.78;5070515;28;20040;-73
2021/08/23 10:20:30;;;;;;;2.85;1.67;;;;;;;24.28;32.90;102124.22;5071363;28;20025;-72
2021/08/23 10:22:57;;;;;;;3.88;0.93;;;;;;;25.20;24.60;102129.97;5053866;28;20044;-73
2021/08/23 10:25:23;;;;;;;3.78;1.05;;;;;;;25.00;40.10;102121.91;5071071;28;20451;-73
2021/08/23 10:27:48;;;;;;;2.10;1.08;;;;;;;24.55;42.03;102119.41;5071340;28;20082;-73
2021/08/23 10:30:25;;;;;;;3.20;1.10;;;;;;;24.44;41.98;102120.09;5070360;28;20473;-73
2021/08/23 10:32:51;;;;;;;1.73;0.93;;;;;;;24.98;41.19;102129.53;5071219;28;20045;-73
2021/08/23 10:35:18;;;;;;;1.55;1.17;;;;;;;26.21;40.92;102130.38;5071120;28;20125;-73
2021/08/23 10:37:43;;;;;;;2.13;1.02;;;;;;;26.69;41.15;102134.03;5070096;28;20036;-74
2021/08/23 10:40:10;;;;;;;3.08;1.25;;;;;;;26.90;39.19;102130.75;5071148;28;20039;-73
2021/08/23 10:42:46;;;;;;;2.03;1.00;;;;;;;26.64;39.92;102129.28;5070256;28;20473;-72
2021/08/23 10:45:15;;;;;;;2.17;1.00;;;;;;;26.52;39.75;102128.41;5069778;28;20124;-73
2021/08/23 10:47:42;;;;;;;1.42;0.70;;;;;;;27.48;39.63;102130.91;5070978;28;20040;-73
2021/08/23 10:50:19;;;;;;;1.55;1.00;;;;;;;27.21;38.34;102123.22;5070147;28;20047;-73
2021/08/23 10:52:45;;;;;;;2.00;1.00;;;;;;;27.00;39.49;102123.81;5069576;28;20064;-73
2021/08/23 10:55:22;;;;;;;2.20;1.08;;;;;;;26.19;38.59;102134.41;5070995;28;20064;-73
2021/08/23 10:57:48;;;;;;;2.05;0.98;;;;;;;26.72;39.18;102139.91;5070429;28;20064;-73
2021/08/23 11:00:15;;;;;;;1.17;0.95;;;;;;;27.25;40.01;102143.59;5070138;28;20129;-73
2021/08/23 11:02:41;;;;;;;1.77;1.52;;;;;;;27.08;38.63;102139.91;5070674;28;20578;-73
2021/08/23 11:05:14;;;;;;;1.50;1.00;;;;;;;27.04;38.65;102145.03;5070768;28;20032;-73
2021/08/23 11:07:47;;;;;;;4.72;1.33;;;;;;;26.76;40.21;102133.94;5070407;28;20036;-70
2021/08/23 11:10:13;;;;;;;2.35;1.40;;;;;;;26.62;38.74;102136.91;5053105;28;20040;-70
2021/08/23 11:12:45;;;;;;;3.05;1.30;;;;;;;26.75;41.74;102138.59;5069549;28;20060;-70
2021/08/23 11:15:17;;;;;;;2.38;1.40;;;;;;;26.38;40.90;102132.44;5052947;28;20051;-70
2021/08/23 11:17:51;;;;;;;2.28;1.70;;;;;;;25.28;43.28;102140.56;5052573;28;20036;-70
2021/08/23 11:20:20;;;;;;;3.15;1.40;;;;;;;25.61;41.79;102150.28;5070577;28;20032;-70